createdAt,value
2022-09-12T00:01:10.584Z,8.99
2022-09-12T00:03:37.562Z,9.00
2022-09-12T00:06:08.209Z,9.05
2022-09-12T00:08:34.598Z,9.05
2022-09-12T00:11:04.633Z,8.98
2022-09-12T00:13:30.892Z,8.94
2022-09-12T00:15:57.147Z,8.94
2022-09-12T00:18:23.437Z,8.93
2022-09-12T00:20:49.989Z,8.92
2022-09-12T00:23:16.260Z,8.90
2022-09-12T00:25:43.493Z,8.88
2022-09-12T00:28:10.200Z,8.84
2022-09-12T00:30:40.140Z,8.81
2022-09-12T00:33:06.419Z,8.78
2022-09-12T00:35:32.685Z,8.70
2022-09-12T00:37:59.183Z,8.61
2022-09-12T00:40:25.462Z,8.64
2022-09-12T00:42:52.280Z,8.61
2022-09-12T00:45:27.587Z,8.58
2022-09-12T00:47:54.658Z,8.61
2022-09-12T00:50:20.943Z,8.61
2022-09-12T00:52:50.950Z,8.58
2022-09-12T00:55:22.363Z,8.55
2022-09-12T00:58:00.004Z,8.51
2022-09-12T01:00:27.166Z,8.49
2022-09-12T01:02:58.741Z,8.46
2022-09-12T01:05:25.800Z,8.43
2022-09-12T01:07:52.346Z,8.39
2022-09-12T01:10:19.442Z,8.37
2022-09-12T01:12:46.267Z,8.36
2022-09-12T01:15:12.589Z,8.36
2022-09-12T01:17:50.198Z,8.33
2022-09-12T01:20:19.501Z,8.31
2022-09-12T01:22:58.101Z,8.32
2022-09-12T01:25:27.453Z,8.31
2022-09-12T01:28:09.101Z,8.30
2022-09-12T01:30:45.832Z,8.31
2022-09-12T01:33:15.093Z,8.32
2022-09-12T01:35:50.570Z,8.29
2022-09-12T01:38:34.419Z,8.31
2022-09-12T01:41:09.968Z,8.25
2022-09-12T01:43:43.065Z,8.21
2022-09-12T01:46:14.565Z,8.18
2022-09-12T01:48:44.184Z,8.17
2022-09-12T01:51:18.773Z,8.14
2022-09-12T01:53:48.266Z,8.09
2022-09-12T01:56:22.436Z,8.05
2022-09-12T01:59:01.456Z,8.03
2022-09-12T02:01:29.570Z,8.01
2022-09-12T02:03:56.151Z,7.93
2022-09-12T02:06:26.130Z,7.88
2022-09-12T02:08:54.824Z,7.86
2022-09-12T02:11:21.691Z,7.86
2022-09-12T02:13:53.746Z,7.83
2022-09-12T02:16:24.254Z,7.75
2022-09-12T02:18:57.833Z,7.70
2022-09-12T02:21:26.097Z,7.71
2022-09-12T02:23:56.733Z,7.69
2022-09-12T02:26:35.430Z,7.67
2022-09-12T02:29:02.827Z,7.67
2022-09-12T02:31:47.985Z,7.64
2022-09-12T02:34:23.355Z,7.62
2022-09-12T02:37:03.451Z,7.61
2022-09-12T02:39:29.786Z,7.61
2022-09-12T02:41:58.447Z,7.60
2022-09-12T02:44:25.873Z,7.58
2022-09-12T02:46:54.783Z,7.56
2022-09-12T02:49:21.176Z,7.58
2022-09-12T02:51:47.763Z,7.56
2022-09-12T02:54:15.527Z,7.56
2022-09-12T02:56:42.933Z,7.55
2022-09-12T02:59:10.037Z,7.53
2022-09-12T03:01:36.535Z,7.56
2022-09-12T03:04:25.768Z,7.57
2022-09-12T03:07:06.546Z,7.59
2022-09-12T03:09:49.086Z,7.58
2022-09-12T03:12:18.437Z,7.61
2022-09-12T03:14:51.726Z,7.61
2022-09-12T03:17:18.089Z,7.64
2022-09-12T03:20:01.036Z,7.66
2022-09-12T03:22:51.221Z,7.63
2022-09-12T03:25:22.957Z,7.59
2022-09-12T03:27:49.197Z,7.62
2022-09-12T03:30:15.489Z,7.63
2022-09-12T03:32:43.054Z,7.65
2022-09-12T03:35:10.132Z,7.63
2022-09-12T03:37:36.445Z,7.63
2022-09-12T03:40:04.441Z,7.55
2022-09-12T03:42:30.797Z,7.50
2022-09-12T03:44:57.062Z,7.49
2022-09-12T03:47:23.363Z,7.48
2022-09-12T03:49:49.675Z,7.46
2022-09-12T03:52:15.910Z,7.48
2022-09-12T03:54:42.182Z,7.44
2022-09-12T03:57:08.428Z,7.43
2022-09-12T03:59:34.692Z,7.40
2022-09-12T04:02:01.031Z,7.37
2022-09-12T04:04:27.449Z,7.29
2022-09-12T04:06:53.725Z,7.28
2022-09-12T04:09:20.004Z,7.27
2022-09-12T04:11:46.351Z,7.27
2022-09-12T04:14:12.768Z,7.25
2022-09-12T04:16:39.170Z,7.19
2022-09-12T04:19:05.465Z,7.15
2022-09-12T04:21:31.982Z,7.16
2022-09-12T04:23:58.252Z,7.16
2022-09-12T04:26:24.553Z,7.13
2022-09-12T04:28:53.690Z,7.09
2022-09-12T04:31:22.532Z,7.08
2022-09-12T04:33:53.800Z,7.06
2022-09-12T04:36:20.081Z,7.08
2022-09-12T04:38:47.475Z,7.11
2022-09-12T04:41:18.540Z,7.10
2022-09-12T04:43:47.820Z,7.08
2022-09-12T04:46:22.324Z,7.01
2022-09-12T04:48:52.277Z,7.01
2022-09-12T04:51:25.865Z,7.00
2022-09-12T04:53:52.916Z,6.99
2022-09-12T04:56:19.979Z,7.04
2022-09-12T04:58:46.843Z,7.05
2022-09-12T05:01:14.913Z,7.05
2022-09-12T05:03:44.718Z,7.10
2022-09-12T05:06:13.184Z,7.10
2022-09-12T05:08:39.508Z,7.12
2022-09-12T05:11:07.004Z,7.17
2022-09-12T05:13:33.810Z,7.19
2022-09-12T05:16:00.923Z,7.23
2022-09-12T05:18:27.794Z,7.27
2022-09-12T05:20:54.952Z,7.33
2022-09-12T05:23:21.547Z,7.41
2022-09-12T05:25:48.669Z,7.48
2022-09-12T05:28:15.077Z,7.57
2022-09-12T05:30:41.386Z,7.65
2022-09-12T05:33:07.662Z,7.77
2022-09-12T05:35:33.924Z,7.84
2022-09-12T05:38:00.220Z,7.93
2022-09-12T05:40:26.514Z,8.03
2022-09-12T05:42:53.076Z,8.11
2022-09-12T05:45:19.333Z,8.17
2022-09-12T05:47:48.474Z,8.17
2022-09-12T05:50:15.110Z,8.19
2022-09-12T05:52:41.660Z,8.22
2022-09-12T05:55:08.174Z,8.27
2022-09-12T05:57:34.442Z,8.33
2022-09-12T06:00:01.159Z,8.37
2022-09-12T06:02:27.493Z,8.43
2022-09-12T06:04:53.853Z,8.47
2022-09-12T06:07:20.290Z,8.55
2022-09-12T06:09:46.559Z,8.65
2022-09-12T06:12:13.618Z,8.76
2022-09-12T06:14:39.892Z,8.84
2022-09-12T06:17:06.177Z,8.91
2022-09-12T06:19:32.480Z,8.98
2022-09-12T06:21:58.901Z,9.07
2022-09-12T06:24:25.149Z,9.21
2022-09-12T06:26:52.775Z,9.36
2022-09-12T06:29:19.440Z,9.43
2022-09-12T06:31:45.893Z,9.55
2022-09-12T06:34:14.049Z,9.68
2022-09-12T06:36:41.859Z,9.80
2022-09-12T06:39:10.936Z,9.95
2022-09-12T06:41:41.592Z,10.19
2022-09-12T06:44:15.497Z,10.44
2022-09-12T06:46:42.082Z,10.66
2022-09-12T06:49:08.621Z,10.86
2022-09-12T06:51:36.226Z,11.03
2022-09-12T06:54:03.042Z,11.19
2022-09-12T06:56:29.335Z,11.38
2022-09-12T06:58:56.672Z,11.55
2022-09-12T07:01:27.060Z,11.72
2022-09-12T07:03:57.507Z,11.89
2022-09-12T07:06:24.790Z,12.05
2022-09-12T07:08:51.056Z,12.18
2022-09-12T07:11:20.219Z,12.29
2022-09-12T07:13:47.579Z,12.44
2022-09-12T07:16:19.174Z,12.64
2022-09-12T07:18:49.952Z,12.79
2022-09-12T07:21:16.252Z,12.95
2022-09-12T07:23:42.836Z,13.03
2022-09-12T07:26:13.186Z,13.06
2022-09-12T07:28:40.029Z,13.11
2022-09-12T07:31:07.774Z,13.20
2022-09-12T07:33:34.324Z,13.35
2022-09-12T07:36:01.332Z,13.52
2022-09-12T07:38:27.681Z,13.67
2022-09-12T07:40:53.925Z,13.87
2022-09-12T07:43:20.233Z,13.97
2022-09-12T07:45:46.563Z,14.14
2022-09-12T07:48:13.763Z,14.34
2022-09-12T07:50:44.983Z,14.46
2022-09-12T07:53:11.578Z,14.58
2022-09-12T07:55:37.841Z,14.74
2022-09-12T07:58:04.281Z,14.80
2022-09-12T08:00:35.843Z,14.94
2022-09-12T08:03:03.015Z,15.04
2022-09-12T08:05:29.953Z,15.25
2022-09-12T08:07:57.844Z,15.42
2022-09-12T08:10:24.266Z,15.59
2022-09-12T08:12:50.873Z,15.71
2022-09-12T08:15:17.558Z,15.83
2022-09-12T08:17:43.808Z,15.91
2022-09-12T08:20:10.115Z,16.02
2022-09-12T08:22:36.398Z,16.04
2022-09-12T08:25:02.724Z,16.00
2022-09-12T08:27:29.029Z,15.97
2022-09-12T08:29:55.501Z,16.07
2022-09-12T08:32:22.017Z,16.14
2022-09-12T08:34:48.267Z,16.11
2022-09-12T08:37:14.727Z,16.47
2022-09-12T08:39:41.016Z,16.71
2022-09-12T08:44:49.473Z,16.85
2022-09-12T08:47:21.949Z,16.99
2022-09-12T08:49:51.557Z,17.11
2022-09-12T08:52:21.011Z,17.30
2022-09-12T08:54:47.535Z,17.46
2022-09-12T08:57:15.024Z,17.45
2022-09-12T08:59:44.683Z,17.47
2022-09-12T09:02:24.370Z,17.35
2022-09-12T09:04:52.023Z,17.43
2022-09-12T09:07:18.258Z,17.49
2022-09-12T09:09:47.331Z,17.53
2022-09-12T09:12:23.131Z,17.58
2022-09-12T09:14:56.436Z,17.63
2022-09-12T09:17:24.665Z,17.69
2022-09-12T09:19:58.024Z,17.93
2022-09-12T09:22:40.106Z,17.98
2022-09-12T09:25:11.173Z,17.92
2022-09-12T09:27:41.830Z,18.04
2022-09-12T09:30:13.096Z,18.06
2022-09-12T09:32:41.271Z,18.19
2022-09-12T09:35:16.398Z,18.25
2022-09-12T09:37:58.794Z,18.25
2022-09-12T09:40:28.911Z,18.20
2022-09-12T09:42:58.313Z,18.25
2022-09-12T09:45:27.637Z,18.22
2022-09-12T09:47:57.110Z,18.35
2022-09-12T09:50:23.922Z,18.47
2022-09-12T09:52:51.726Z,18.54
2022-09-12T09:55:20.938Z,18.68
2022-09-12T09:57:48.297Z,18.74
2022-09-12T10:00:35.192Z,18.74
2022-09-12T10:03:04.965Z,18.78
2022-09-12T10:05:33.438Z,18.83
2022-09-12T10:07:59.713Z,18.96
2022-09-12T10:10:26.189Z,19.02
2022-09-12T10:13:06.652Z,19.09
2022-09-12T10:15:34.652Z,19.22
2022-09-12T10:18:03.011Z,19.25
2022-09-12T10:20:34.414Z,19.17
2022-09-12T10:23:02.130Z,19.38
2022-09-12T10:25:32.192Z,19.47
2022-09-12T10:28:00.206Z,19.51
2022-09-12T10:30:28.393Z,19.69
2022-09-12T10:33:05.023Z,19.64
2022-09-12T10:35:42.080Z,19.71
2022-09-12T10:38:13.588Z,19.79
2022-09-12T10:40:42.747Z,19.94
2022-09-12T10:43:26.076Z,20.12
2022-09-12T10:45:56.530Z,20.16
2022-09-12T10:48:22.855Z,20.14
2022-09-12T10:50:49.137Z,20.13
2022-09-12T10:53:18.819Z,20.03
2022-09-12T10:56:05.459Z,19.92
2022-09-12T10:58:50.144Z,20.00
2022-09-12T11:01:35.227Z,20.06
2022-09-12T11:04:20.507Z,20.18
2022-09-12T11:06:46.746Z,20.44
2022-09-12T11:09:15.809Z,20.61
2022-09-12T11:12:05.072Z,20.74
2022-09-12T11:14:51.013Z,20.74
2022-09-12T11:17:17.307Z,21.21
2022-09-12T11:19:43.525Z,21.39
2022-09-12T11:22:35.210Z,21.46
2022-09-12T11:25:07.557Z,21.52
2022-09-12T11:27:33.829Z,21.29
2022-09-12T11:30:18.538Z,21.24
2022-09-12T11:32:53.732Z,21.20
2022-09-12T11:35:30.597Z,21.18
2022-09-12T11:38:15.016Z,21.23
2022-09-12T11:40:56.086Z,21.36
2022-09-12T11:43:42.099Z,21.56
2022-09-12T11:46:20.931Z,21.73
2022-09-12T11:48:52.499Z,21.63
2022-09-12T11:51:19.968Z,21.57
2022-09-12T11:53:53.108Z,21.62
2022-09-12T11:56:19.490Z,21.55
2022-09-12T11:58:48.182Z,21.63
2022-09-12T12:01:20.979Z,21.54
2022-09-12T12:03:48.009Z,21.51
2022-09-12T12:06:19.127Z,21.41
2022-09-12T12:11:15.354Z,21.07
2022-09-12T12:13:47.528Z,21.07
2022-09-12T12:16:17.125Z,21.19
2022-09-12T12:18:44.072Z,21.28
2022-09-12T12:21:19.960Z,21.21
2022-09-12T12:24:05.285Z,21.14
2022-09-12T12:26:40.750Z,21.03
2022-09-12T12:29:11.554Z,20.82
2022-09-12T12:31:56.808Z,20.88
2022-09-12T12:34:34.048Z,20.93
2022-09-12T12:37:21.044Z,21.16
2022-09-12T12:40:03.224Z,21.36
2022-09-12T12:42:32.821Z,21.41
2022-09-12T12:44:59.911Z,21.46
2022-09-12T12:47:28.410Z,21.38
2022-09-12T12:50:02.180Z,21.44
2022-09-12T12:52:31.455Z,21.56
2022-09-12T12:54:59.847Z,22.02
2022-09-12T12:57:28.248Z,22.40
2022-09-12T13:00:39.943Z,22.46
2022-09-12T13:03:09.051Z,22.26
2022-09-12T13:05:39.511Z,22.23
2022-09-12T13:08:12.046Z,22.15
2022-09-12T13:10:38.810Z,22.09
2022-09-12T13:13:07.559Z,22.17
2022-09-12T13:15:36.758Z,22.25
2022-09-12T13:18:05.989Z,22.48
2022-09-12T13:20:35.636Z,22.63
2022-09-12T13:23:01.908Z,22.51
2022-09-12T13:25:28.395Z,22.42
2022-09-12T13:28:03.881Z,22.31
2022-09-12T13:30:31.661Z,22.11
2022-09-12T13:32:59.229Z,22.20
2022-09-12T13:35:38.697Z,22.23
2022-09-12T13:38:05.133Z,22.31
2022-09-12T13:40:34.564Z,22.41
2022-09-12T13:43:26.254Z,22.13
2022-09-12T13:45:52.911Z,22.25
2022-09-12T13:48:21.897Z,22.57
2022-09-12T13:50:52.174Z,22.76
2022-09-12T13:53:22.041Z,22.82
2022-09-12T13:55:52.076Z,22.86
2022-09-12T13:58:20.516Z,22.79
2022-09-12T14:00:47.982Z,22.62
2022-09-12T14:03:44.035Z,22.42
2022-09-12T14:06:11.215Z,22.43
2022-09-12T14:08:40.764Z,22.16
2022-09-12T14:11:11.026Z,22.05
2022-09-12T14:13:39.055Z,22.11
2022-09-12T14:16:08.976Z,22.26
2022-09-12T14:18:37.498Z,22.42
2022-09-12T14:21:11.227Z,22.30
2022-09-12T14:23:41.540Z,22.42
2022-09-12T14:26:11.487Z,22.53
2022-09-12T14:28:41.770Z,22.66
2022-09-12T14:31:08.169Z,22.70
2022-09-12T14:33:47.714Z,22.60
2022-09-12T14:36:35.634Z,22.55
2022-09-12T14:39:03.437Z,22.46
2022-09-12T14:41:32.275Z,22.43
2022-09-12T14:44:00.392Z,22.42
2022-09-12T14:46:30.444Z,22.80
2022-09-12T14:48:59.428Z,23.09
2022-09-12T14:51:34.171Z,22.89
2022-09-12T14:54:00.803Z,23.01
2022-09-12T14:56:41.168Z,23.26
2022-09-12T14:59:26.448Z,23.40
2022-09-12T15:02:17.650Z,23.19
2022-09-12T15:04:46.200Z,22.70
2022-09-12T15:07:28.246Z,22.16
2022-09-12T15:09:54.608Z,21.61
2022-09-12T15:12:24.801Z,21.34
2022-09-12T15:14:51.143Z,21.14
2022-09-12T15:17:17.464Z,20.92
2022-09-12T15:19:43.775Z,20.85
2022-09-12T15:22:13.707Z,20.74
2022-09-12T15:24:40.109Z,20.62
2022-09-12T15:27:11.401Z,20.56
2022-09-12T15:29:38.485Z,20.55
2022-09-12T15:32:06.171Z,20.54
2022-09-12T15:34:32.827Z,20.56
2022-09-12T15:36:59.136Z,20.44
2022-09-12T15:39:25.559Z,20.35
2022-09-12T15:41:52.104Z,20.26
2022-09-12T15:44:20.103Z,20.19
2022-09-12T15:46:46.726Z,20.11
2022-09-12T15:49:13.106Z,20.04
2022-09-12T15:51:40.207Z,19.96
2022-09-12T15:54:06.562Z,19.88
2022-09-12T15:56:32.842Z,19.83
2022-09-12T15:59:00.057Z,19.79
2022-09-12T16:01:26.932Z,19.78
2022-09-12T16:03:53.505Z,19.72
2022-09-12T16:06:19.854Z,19.62
2022-09-12T16:08:46.184Z,19.54
2022-09-12T16:11:18.633Z,19.45
2022-09-12T16:13:44.899Z,19.32
2022-09-12T16:16:11.358Z,19.20
2022-09-12T16:18:39.732Z,19.15
2022-09-12T16:21:08.204Z,19.08
2022-09-12T16:23:39.337Z,19.06
2022-09-12T16:26:06.679Z,19.03
2022-09-12T16:28:33.442Z,19.01
2022-09-12T16:31:01.138Z,19.02
2022-09-12T16:33:27.821Z,18.92
2022-09-12T16:36:01.008Z,18.79
2022-09-12T16:38:27.265Z,18.74
2022-09-12T16:40:59.172Z,18.71
2022-09-12T16:43:25.415Z,18.72
2022-09-12T16:45:59.698Z,18.67
2022-09-12T16:48:26.091Z,18.64
2022-09-12T16:51:01.930Z,18.56
2022-09-12T16:53:35.268Z,18.49
2022-09-12T16:56:07.223Z,18.46
2022-09-12T16:58:38.511Z,18.40
2022-09-12T17:01:08.994Z,18.33
2022-09-12T17:03:36.392Z,18.28
2022-09-12T17:06:04.550Z,18.22
2022-09-12T17:08:32.725Z,18.16
2022-09-12T17:11:00.444Z,18.11
2022-09-12T17:13:36.662Z,18.10
2022-09-12T17:16:13.414Z,18.09
2022-09-12T17:18:40.115Z,18.04
2022-09-12T17:21:07.070Z,17.98
2022-09-12T17:23:33.581Z,17.90
2022-09-12T17:25:59.976Z,17.87
2022-09-12T17:28:27.141Z,17.84
2022-09-12T17:30:57.095Z,17.80
2022-09-12T17:33:23.700Z,17.77
2022-09-12T17:35:49.989Z,17.75
2022-09-12T17:38:19.360Z,17.74
2022-09-12T17:40:58.967Z,17.73
2022-09-12T17:43:25.582Z,17.70
2022-09-12T17:45:56.323Z,17.65
2022-09-12T17:48:22.714Z,17.64
2022-09-12T17:50:48.990Z,17.62
2022-09-12T17:53:15.236Z,17.59
2022-09-12T17:55:41.793Z,17.58
2022-09-12T17:58:08.053Z,17.58
2022-09-12T18:00:53.095Z,17.60
2022-09-12T18:03:22.959Z,17.59
2022-09-12T18:05:52.685Z,17.54
2022-09-12T18:08:19.235Z,17.51
2022-09-12T18:10:45.745Z,17.49
2022-09-12T18:13:12.440Z,17.45
2022-09-12T18:15:38.809Z,17.36
2022-09-12T18:18:05.782Z,17.28
2022-09-12T18:20:32.087Z,17.23
2022-09-12T18:22:58.652Z,17.16
2022-09-12T18:25:25.564Z,17.14
2022-09-12T18:27:51.978Z,17.15
2022-09-12T18:30:21.979Z,17.14
2022-09-12T18:32:48.962Z,17.15
2022-09-12T18:35:15.467Z,17.17
2022-09-12T18:37:42.252Z,17.16
2022-09-12T18:40:09.686Z,17.13
2022-09-12T18:42:36.157Z,17.08
2022-09-12T18:45:02.414Z,17.07
2022-09-12T18:47:28.673Z,17.04
2022-09-12T18:49:55.186Z,17.03
2022-09-12T18:52:21.457Z,17.02
2022-09-12T18:54:47.734Z,17.01
2022-09-12T18:57:13.992Z,17.02
2022-09-12T18:59:40.245Z,17.02
2022-09-12T19:02:07.049Z,17.07
2022-09-12T19:04:33.760Z,17.12
2022-09-12T19:07:01.483Z,17.14
2022-09-12T19:09:27.917Z,17.17
2022-09-12T19:11:54.275Z,17.19
2022-09-12T19:14:25.894Z,17.21
2022-09-12T19:16:52.740Z,17.20
2022-09-12T19:19:19.580Z,17.23
2022-09-12T19:21:45.968Z,17.25
2022-09-12T19:24:13.590Z,17.26
2022-09-12T19:26:39.974Z,17.27
2022-09-12T19:29:06.693Z,17.31
2022-09-12T19:31:33.110Z,17.31
2022-09-12T19:34:04.509Z,17.30
2022-09-12T19:36:44.833Z,17.27
2022-09-12T19:39:12.791Z,17.24
2022-09-12T19:41:39.599Z,17.21
2022-09-12T19:44:06.211Z,17.20
2022-09-12T19:46:32.866Z,17.18
2022-09-12T19:48:59.264Z,17.15
2022-09-12T19:51:25.986Z,17.13
2022-09-12T19:53:52.826Z,17.07
2022-09-12T19:56:19.729Z,17.02
2022-09-12T19:58:49.006Z,16.99
2022-09-12T20:01:18.510Z,16.95
2022-09-12T20:03:45.374Z,16.92
2022-09-12T20:06:13.288Z,16.86
2022-09-12T20:08:43.135Z,16.81
2022-09-12T20:11:10.762Z,16.74
2022-09-12T20:13:37.188Z,16.73
2022-09-12T20:16:11.105Z,16.70
2022-09-12T20:18:38.050Z,16.67
2022-09-12T20:21:31.198Z,16.62
2022-09-12T20:24:02.795Z,16.61
2022-09-12T20:26:29.265Z,16.58
2022-09-12T20:28:55.578Z,16.58
2022-09-12T20:31:22.007Z,16.61
2022-09-12T20:33:51.715Z,16.65
2022-09-12T20:36:20.404Z,16.67
2022-09-12T20:38:50.690Z,16.70
2022-09-12T20:41:17.984Z,16.73
2022-09-12T20:43:44.272Z,16.74
2022-09-12T20:46:11.543Z,16.71
2022-09-12T20:48:38.770Z,16.70
2022-09-12T20:51:05.191Z,16.68
2022-09-12T20:53:34.866Z,16.68
2022-09-12T20:56:02.029Z,16.69
2022-09-12T20:58:28.302Z,16.69
2022-09-12T21:00:54.617Z,16.68
2022-09-12T21:03:20.987Z,16.67
2022-09-12T21:05:47.265Z,16.68
2022-09-12T21:08:14.236Z,16.70
2022-09-12T21:10:41.978Z,16.70
2022-09-12T21:13:12.090Z,16.73
2022-09-12T21:15:38.713Z,16.73
2022-09-12T21:18:05.262Z,16.72
2022-09-12T21:20:32.207Z,16.70
2022-09-12T21:22:58.501Z,16.69
2022-09-12T21:25:24.762Z,16.69
2022-09-12T21:27:51.047Z,16.71
2022-09-12T21:30:17.426Z,16.72
2022-09-12T21:32:43.706Z,16.73
2022-09-12T21:35:10.059Z,16.74
2022-09-12T21:37:36.323Z,16.74
2022-09-12T21:40:03.264Z,16.73
2022-09-12T21:42:29.576Z,16.74
2022-09-12T21:44:55.953Z,16.74
2022-09-12T21:47:22.235Z,16.72
2022-09-12T21:49:48.514Z,16.73
2022-09-12T21:52:14.767Z,16.75
2022-09-12T21:54:41.018Z,16.75
2022-09-12T21:57:07.297Z,16.77
2022-09-12T21:59:33.591Z,16.78
2022-09-12T22:02:00.392Z,16.78
2022-09-12T22:04:26.785Z,16.78
2022-09-12T22:06:53.095Z,16.78
2022-09-12T22:09:19.344Z,16.79
2022-09-12T22:11:46.026Z,16.80
2022-09-12T22:14:12.708Z,16.80
2022-09-12T22:16:38.963Z,16.79
2022-09-12T22:19:05.517Z,16.78
2022-09-12T22:21:31.754Z,16.79
2022-09-12T22:24:16.916Z,16.82
2022-09-12T22:26:44.437Z,16.81
2022-09-12T22:29:11.169Z,16.80
2022-09-12T22:31:37.992Z,16.80
2022-09-12T22:34:04.772Z,16.80
2022-09-12T22:36:31.902Z,16.78
2022-09-12T22:38:59.167Z,16.80
2022-09-12T22:41:25.455Z,16.80
2022-09-12T22:43:51.806Z,16.80
2022-09-12T22:46:18.076Z,16.80
2022-09-12T22:48:44.465Z,16.79
2022-09-12T22:51:11.134Z,16.80
2022-09-12T22:53:37.556Z,16.80
2022-09-12T22:56:05.029Z,16.81
2022-09-12T22:58:32.075Z,16.79
2022-09-12T23:00:58.338Z,16.78
2022-09-12T23:03:24.792Z,16.77
2022-09-12T23:05:51.097Z,16.76
2022-09-12T23:08:17.687Z,16.75
2022-09-12T23:10:44.011Z,16.71
2022-09-12T23:13:10.537Z,16.63
2022-09-12T23:15:37.314Z,16.49
2022-09-12T23:18:05.151Z,16.35
2022-09-12T23:20:31.767Z,16.23
2022-09-12T23:22:58.058Z,16.17
2022-09-12T23:25:26.263Z,16.14
2022-09-12T23:27:52.801Z,16.12
2022-09-12T23:30:21.314Z,16.08
2022-09-12T23:32:50.679Z,16.06
2022-09-12T23:35:19.576Z,16.04
2022-09-12T23:37:46.486Z,16.01
2022-09-12T23:40:12.864Z,15.98
2022-09-12T23:42:39.205Z,15.97
2022-09-12T23:45:05.672Z,15.97
2022-09-12T23:47:31.951Z,15.99
2022-09-12T23:49:58.239Z,16.02
2022-09-12T23:52:24.519Z,16.04
2022-09-12T23:54:50.796Z,16.07
2022-09-12T23:57:17.052Z,16.07
2022-09-12T23:59:43.387Z,16.09
